Time;durP1;ratioP1;P1;durP2;ratioP2;P2;SDS_P1;SDS_P2;PMS_P1;PMS_P2;Temp;Humidity;BMP_temperature;BMP_pressure;BME280_temperature;BME280_humidity;BME280_pressure;Samples;Min_cycle;Max_cycle;Signal;HPM_P1;HPM_P2
2023/02/17 00:03:48;;;;;;;16.10;7.20;;;;;;;10.12;85.11;101148.94;20806452;28;20425;-70
2023/02/17 00:13:49;;;;;;;14.60;6.57;;;;;;;10.09;86.63;101142.84;20805845;28;20473;-70
2023/02/17 00:23:50;;;;;;;12.68;6.03;;;;;;;10.11;85.82;101141.06;20805339;28;20056;-70
2023/02/17 00:33:52;;;;;;;11.50;5.65;;;;;;;10.20;84.42;101141.91;20804304;28;20060;-70
2023/02/17 00:43:53;;;;;;;14.85;6.15;;;;;;;10.01;85.78;101137.59;20803834;28;20057;-69
2023/02/17 00:53:54;;;;;;;12.15;6.20;;;;;;;10.16;85.96;101145.44;20819319;28;20077;-69
2023/02/17 01:03:56;;;;;;;10.70;5.15;;;;;;;10.23;86.63;101156.75;20819351;28;20060;-69
2023/02/17 01:13:57;;;;;;;12.50;5.13;;;;;;;10.37;87.29;101154.16;20804283;28;20127;-69
2023/02/17 01:23:58;;;;;;;10.65;5.20;;;;;;;10.57;88.80;101140.97;20814677;28;20494;-69
2023/02/17 01:34:00;;;;;;;15.40;5.97;;;;;;;10.61;91.85;101133.09;20815529;28;20053;-69
2023/02/17 01:44:01;;;;;;;13.30;5.07;;;;;;;10.43;91.97;101125.31;20814738;28;20053;-70
2023/02/17 01:54:02;;;;;;;12.70;5.25;;;;;;;10.48;90.72;101123.56;20814637;28;20119;-69
2023/02/17 02:04:03;;;;;;;10.88;5.50;;;;;;;10.37;91.90;101118.38;20813038;28;20498;-70
2023/02/17 02:14:05;;;;;;;11.10;5.65;;;;;;;10.26;94.25;101122.78;20811933;28;20053;-68
2023/02/17 02:24:06;;;;;;;17.58;6.10;;;;;;;10.11;99.46;101120.13;20810871;28;20051;-69
2023/02/17 02:34:08;;;;;;;12.60;5.28;;;;;;;10.09;100.00;101106.19;20811055;28;20450;-68
2023/02/17 02:44:09;;;;;;;14.13;5.38;;;;;;;10.32;100.00;101096.56;20810647;28;20049;-69
2023/02/17 02:54:11;;;;;;;15.93;5.20;;;;;;;10.11;100.00;101084.41;20832728;23;20052;-73
2023/02/17 03:04:12;;;;;;;10.70;5.40;;;;;;;9.89;100.00;101070.50;20808682;28;20399;-71
2023/02/17 03:14:13;;;;;;;12.27;5.47;;;;;;;9.74;100.00;101073.13;20806775;28;20405;-72
2023/02/17 03:24:14;;;;;;;13.02;4.32;;;;;;;9.64;100.00;101066.19;20805919;28;20049;-71
2023/02/17 03:34:16;;;;;;;17.15;4.90;;;;;;;9.49;100.00;101073.16;20807501;28;20111;-71
2023/02/17 03:44:17;;;;;;;20.20;5.32;;;;;;;9.73;100.00;101067.03;20806385;28;20049;-71
2023/02/17 03:54:18;;;;;;;12.18;4.90;;;;;;;9.68;100.00;101065.31;20805871;28;20104;-71
2023/02/17 04:04:20;;;;;;;12.38;5.38;;;;;;;9.53;100.00;101053.09;20804956;28;20103;-71
2023/02/17 04:14:21;;;;;;;9.82;5.50;;;;;;;9.38;100.00;101047.88;20804883;28;20409;-71
2023/02/17 04:24:22;;;;;;;10.18;5.22;;;;;;;9.33;100.00;101057.47;20813060;28;20123;-71
2023/02/17 04:34:23;;;;;;;9.27;4.72;;;;;;;9.36;100.00;101065.31;20819271;28;20426;-71
2023/02/17 04:44:25;;;;;;;10.30;4.68;;;;;;;9.32;100.00;101066.19;20818856;28;20107;-71
2023/02/17 04:54:26;;;;;;;11.82;4.38;;;;;;;9.37;100.00;101078.38;20817222;28;20049;-71
2023/02/17 05:04:27;;;;;;;10.88;4.75;;;;;;;9.31;100.00;101087.97;20817002;28;20051;-71
2023/02/17 05:14:29;;;;;;;9.00;4.43;;;;;;;9.23;100.00;101073.16;20817072;28;20164;-71
2023/02/17 05:24:30;;;;;;;8.57;4.70;;;;;;;9.27;100.00;101076.66;20816675;28;20049;-72
2023/02/17 05:34:31;;;;;;;12.73;4.45;;;;;;;9.19;100.00;101088.81;20811669;28;20049;-72
2023/02/17 05:44:32;;;;;;;9.07;4.10;;;;;;;9.18;100.00;101100.16;20814775;28;20053;-72
2023/02/17 05:54:34;;;;;;;9.68;4.53;;;;;;;9.29;100.00;101108.00;20814041;28;20481;-72
2023/02/17 06:04:35;;;;;;;10.57;4.60;;;;;;;9.44;100.00;101108.91;20810049;28;20072;-72
2023/02/17 06:14:36;;;;;;;9.82;4.78;;;;;;;9.40;100.00;101119.34;20813229;28;20088;-73
2023/02/17 06:24:38;;;;;;;11.90;5.40;;;;;;;9.38;100.00;101110.63;20811332;28;20100;-72
2023/02/17 06:34:39;;;;;;;10.68;4.88;;;;;;;9.42;100.00;101112.38;20809947;28;20049;-73
2023/02/17 06:44:40;;;;;;;12.30;4.97;;;;;;;9.46;100.00;101135.91;20810822;28;20667;-73
2023/02/17 06:54:41;;;;;;;10.18;5.15;;;;;;;9.47;100.00;101144.59;20810636;28;20308;-71
2023/02/17 07:04:43;;;;;;;11.15;5.18;;;;;;;9.58;100.00;101144.59;20791435;28;20494;-71
2023/02/17 07:14:44;;;;;;;7.78;4.22;;;;;;;9.66;100.00;101155.94;20797032;28;20049;-71
2023/02/17 07:24:45;;;;;;;7.30;3.60;;;;;;;9.71;100.00;101167.28;20804726;28;20045;-72
2023/02/17 07:34:46;;;;;;;5.65;3.05;;;;;;;9.77;100.00;101180.34;20806231;28;20418;-71
2023/02/17 07:44:48;;;;;;;6.05;3.25;;;;;;;9.76;100.00;101191.69;20806830;28;20811;-71
2023/02/17 07:54:49;;;;;;;5.40;2.95;;;;;;;9.78;100.00;101205.66;20809760;28;20065;-71
2023/02/17 08:04:51;;;;;;;5.03;2.50;;;;;;;9.84;100.00;101205.63;20825122;28;20069;-72
2023/02/17 08:14:52;;;;;;;4.60;2.25;;;;;;;9.87;100.00;101197.81;20778568;28;20149;-72
2023/02/17 08:24:53;;;;;;;5.25;2.33;;;;;;;9.78;100.00;101205.66;20783721;28;20446;-72
2023/02/17 08:34:55;;;;;;;6.10;3.00;;;;;;;9.85;100.00;101202.16;20732643;28;20053;-72
2023/02/17 08:44:56;;;;;;;7.03;3.03;;;;;;;9.87;100.00;101202.13;20713666;28;20065;-72
2023/02/17 08:54:58;;;;;;;5.80;2.42;;;;;;;9.86;100.00;101177.72;20730535;28;20127;-72
2023/02/17 09:04:59;;;;;;;6.03;2.90;;;;;;;9.83;100.00;101182.09;20725910;28;20053;-72
2023/02/17 09:15:00;;;;;;;8.10;3.78;;;;;;;9.74;100.00;101227.44;20717592;28;20053;-71
2023/02/17 09:25:01;;;;;;;7.43;3.80;;;;;;;9.56;100.00;101224.78;20720054;28;20054;-72
2023/02/17 09:35:04;;;;;;;11.80;4.60;;;;;;;9.55;100.00;101203.00;20712745;28;20050;-72
2023/02/17 09:45:07;;;;;;;12.13;5.53;;;;;;;9.61;100.00;101213.47;20709509;28;20050;-72
2023/02/17 09:55:08;;;;;;;8.98;4.80;;;;;;;9.78;100.00;101221.34;20715111;28;20057;-71
2023/02/17 10:05:09;;;;;;;7.47;4.25;;;;;;;9.91;100.00;101212.59;20714403;28;20105;-71
2023/02/17 10:15:13;;;;;;;9.95;4.70;;;;;;;10.11;100.00;101216.94;20712873;28;20052;-72
2023/02/17 10:25:18;;;;;;;11.55;4.60;;;;;;;10.26;100.00;101189.06;20702764;28;20049;-71
2023/02/17 10:35:19;;;;;;;9.05;3.58;;;;;;;10.55;100.00;101224.78;20714673;28;20455;-71
2023/02/17 10:45:21;;;;;;;6.45;3.30;;;;;;;10.88;100.00;101226.44;20710000;28;20085;-71
2023/02/17 10:55:23;;;;;;;7.40;3.22;;;;;;;11.04;100.00;101222.88;20706195;28;20123;-72
2023/02/17 11:05:24;;;;;;;4.75;2.30;;;;;;;11.18;100.00;101214.06;20703401;28;20046;-72
2023/02/17 11:15:25;;;;;;;5.65;2.00;;;;;;;11.54;100.00;101200.72;20710533;28;20565;-72
2023/02/17 11:25:26;;;;;;;4.65;1.77;;;;;;;11.52;100.00;101205.13;20707810;28;20128;-72
2023/02/17 11:35:28;;;;;;;6.20;2.03;;;;;;;11.65;100.00;101189.31;20701324;28;20088;-71
2023/02/17 11:45:30;;;;;;;4.13;1.90;;;;;;;12.00;100.00;101175.91;20702106;28;20058;-72
2023/02/17 11:55:31;;;;;;;3.78;1.88;;;;;;;12.18;100.00;101180.13;20706914;28;20061;-74
2023/02/17 12:05:32;;;;;;;4.47;1.73;;;;;;;12.13;100.00;101171.44;20702219;28;20092;-72
2023/02/17 12:15:33;;;;;;;4.30;2.13;;;;;;;12.36;100.00;101179.06;20697449;28;20525;-72
2023/02/17 12:25:34;;;;;;;4.95;2.22;;;;;;;12.28;100.00;101176.53;20699907;28;20407;-71
2023/02/17 12:35:36;;;;;;;4.95;2.30;;;;;;;12.26;100.00;101188.78;20706436;28;20045;-72
2023/02/17 12:45:37;;;;;;;4.82;2.13;;;;;;;12.42;100.00;101163.25;20710567;28;20531;-71
2023/02/17 12:55:38;;;;;;;4.97;2.53;;;;;;;12.31;100.00;101168.59;20712502;28;20072;-71
2023/02/17 13:05:40;;;;;;;5.78;2.53;;;;;;;12.28;100.00;101164.25;20717472;28;20517;-71
2023/02/17 13:15:41;;;;;;;6.03;2.70;;;;;;;12.28;100.00;101160.78;20717848;28;20108;-71
2023/02/17 13:25:43;;;;;;;5.75;2.88;;;;;;;12.19;100.00;101161.72;20712467;28;20050;-72
2023/02/17 13:35:44;;;;;;;5.20;2.55;;;;;;;12.13;100.00;101155.69;20710490;28;20050;-71
2023/02/17 13:45:46;;;;;;;5.47;2.53;;;;;;;12.21;100.00;101143.31;20717460;28;20092;-71
2023/02/17 13:55:47;;;;;;;5.53;2.55;;;;;;;12.39;100.00;101131.75;20709522;28;20046;-71
2023/02/17 14:05:48;;;;;;;6.93;3.22;;;;;;;12.44;100.00;101115.06;20707325;28;20613;-71
2023/02/17 14:15:50;;;;;;;6.43;3.10;;;;;;;12.52;100.00;101128.97;20704409;28;20046;-71
2023/02/17 14:25:51;;;;;;;6.75;3.53;;;;;;;12.74;100.00;101128.69;20715537;28;20061;-71
2023/02/17 14:35:53;;;;;;;8.35;3.58;;;;;;;12.53;100.00;101135.97;20708816;28;20060;-71
2023/02/17 14:45:54;;;;;;;8.88;3.40;;;;;;;12.40;100.00;101112.47;20705144;28;20495;-71
2023/02/17 14:55:55;;;;;;;7.07;3.22;;;;;;;12.43;100.00;101097.56;20702457;28;20422;-73
2023/02/17 15:05:56;;;;;;;5.68;2.80;;;;;;;12.42;100.00;101085.31;20710925;28;20109;-73
2023/02/17 15:15:58;;;;;;;6.72;2.97;;;;;;;12.32;100.00;101088.97;20710842;28;20468;-73
2023/02/17 15:25:59;;;;;;;5.10;2.70;;;;;;;12.29;100.00;101100.34;20707471;28;20073;-74
2023/02/17 15:36:01;;;;;;;5.60;2.78;;;;;;;12.20;100.00;101110.09;20700659;28;20069;-72
2023/02/17 15:46:02;;;;;;;7.72;3.42;;;;;;;12.22;100.00;101108.34;20667601;28;20099;-77
2023/02/17 15:56:03;;;;;;;7.32;3.70;;;;;;;12.11;100.00;101115.44;20661162;28;20172;-74
2023/02/17 16:06:05;;;;;;;7.88;4.22;;;;;;;11.98;100.00;101097.22;20695469;28;20721;-74
2023/02/17 16:16:07;;;;;;;7.82;3.90;;;;;;;12.02;100.00;101109.38;20704466;28;20487;-73
2023/02/17 16:26:09;;;;;;;9.52;4.63;;;;;;;11.93;100.00;101124.34;20728100;28;20050;-75
2023/02/17 16:36:10;;;;;;;9.45;4.72;;;;;;;11.89;100.00;101131.41;20720761;28;20053;-71
2023/02/17 16:46:11;;;;;;;8.77;4.32;;;;;;;11.81;100.00;101128.81;20713251;28;20136;-71
2023/02/17 16:56:13;;;;;;;9.43;5.25;;;;;;;11.81;100.00;101118.31;20725257;28;20065;-70
2023/02/17 17:06:14;;;;;;;9.07;4.28;;;;;;;11.75;100.00;101131.50;20697828;28;20076;-70
2023/02/17 17:16:15;;;;;;;8.73;5.15;;;;;;;11.69;100.00;101159.53;20699163;28;20050;-71
2023/02/17 17:26:16;;;;;;;10.50;5.32;;;;;;;11.76;100.00;101155.97;20707265;28;20054;-76
2023/02/17 17:36:18;;;;;;;10.50;5.40;;;;;;;11.62;100.00;101195.44;20705082;28;20526;-72
2023/02/17 17:46:19;;;;;;;10.07;5.65;;;;;;;11.52;100.00;101192.00;20719978;28;20514;-78
2023/02/17 17:56:20;;;;;;;12.70;6.22;;;;;;;11.56;100.00;101206.84;20711389;28;20064;-73
2023/02/17 18:06:22;;;;;;;10.63;5.20;;;;;;;11.46;100.00;101220.03;20706877;28;20050;-76
2023/02/17 18:16:23;;;;;;;9.07;5.00;;;;;;;11.51;100.00;101242.72;20712432;28;20046;-73
2023/02/17 18:26:24;;;;;;;12.32;5.97;;;;;;;11.47;100.00;101246.25;20710704;28;20486;-73
2023/02/17 18:36:25;;;;;;;13.30;6.60;;;;;;;11.39;100.00;101262.88;20702953;28;20050;-73
2023/02/17 18:46:27;;;;;;;11.32;6.30;;;;;;;11.32;100.00;101275.16;20699289;28;20050;-75
2023/02/17 18:56:28;;;;;;;11.82;6.72;;;;;;;11.25;100.00;101281.31;20707491;28;20520;-73
2023/02/17 19:06:29;;;;;;;13.38;7.18;;;;;;;11.24;100.00;101303.16;20705443;28;20093;-73
2023/02/17 19:16:34;;;;;;;13.75;7.60;;;;;;;11.13;100.00;101310.19;20689381;28;20392;-74
2023/02/17 19:26:35;;;;;;;9.77;6.13;;;;;;;11.14;100.00;101297.09;20705801;28;20045;-73
2023/02/17 19:36:37;;;;;;;9.63;6.07;;;;;;;11.20;100.00;101297.06;20705979;28;20049;-74
2023/02/17 19:46:38;;;;;;;10.43;5.97;;;;;;;11.20;100.00;101298.81;20704133;28;20504;-73
2023/02/17 19:56:39;;;;;;;9.32;5.65;;;;;;;11.21;100.00;101293.56;20695423;28;20421;-73
2023/02/17 20:06:41;;;;;;;14.32;9.45;;;;;;;11.18;100.00;101303.19;20704527;28;20058;-73
2023/02/17 20:16:42;;;;;;;11.52;6.38;;;;;;;11.12;100.00;101311.09;20703777;28;20050;-73
2023/02/17 20:26:43;;;;;;;9.50;5.97;;;;;;;11.18;100.00;101313.69;20698891;28;20131;-76
2023/02/17 20:36:47;;;;;;;10.35;5.32;;;;;;;11.24;100.00;101311.91;20696061;28;20111;-77
2023/02/17 20:46:49;;;;;;;8.77;4.53;;;;;;;11.30;100.00;101308.38;20702937;23;20066;-74
2023/02/17 20:56:51;;;;;;;10.05;5.40;;;;;;;11.34;100.00;101325.84;20638903;28;20431;-73
2023/02/17 21:06:52;;;;;;;8.80;5.50;;;;;;;11.36;100.00;101311.00;20701241;28;20707;-72
2023/02/17 21:27:18;;;;;;;6.90;3.60;;;;;;;11.42;100.00;101313.56;20895232;23;20088;-71
2023/02/17 21:37:19;;;;;;;6.60;3.35;;;;;;;11.47;100.00;101290.81;20823023;28;20112;-70
2023/02/17 21:47:21;;;;;;;6.05;2.70;;;;;;;11.55;100.00;101293.41;20792546;28;20075;-71
2023/02/17 21:57:22;;;;;;;5.38;2.75;;;;;;;11.53;100.00;101285.53;20792862;28;20089;-71
2023/02/17 22:07:23;;;;;;;5.70;3.22;;;;;;;11.57;100.00;101281.16;20792440;28;20046;-72
2023/02/17 22:17:25;;;;;;;4.93;2.60;;;;;;;11.57;100.00;101291.66;20784063;28;20108;-72
2023/02/17 22:27:26;;;;;;;6.22;2.97;;;;;;;11.76;100.00;101287.16;20788257;28;20062;-76
2023/02/17 22:37:27;;;;;;;6.78;3.25;;;;;;;11.66;100.00;101282.84;20790764;28;20050;-75
2023/02/17 22:47:28;;;;;;;4.97;2.40;;;;;;;11.70;100.00;101276.72;20792505;28;20058;-75
2023/02/17 22:57:30;;;;;;;6.03;2.65;;;;;;;11.73;100.00;101267.06;20786837;28;20107;-75
2023/02/17 23:07:31;;;;;;;4.88;2.20;;;;;;;11.70;100.00;101268.84;20786976;28;20523;-75
2023/02/17 23:17:55;;;;;;;7.63;3.42;;;;;;;11.66;100.00;101278.47;20797885;28;20119;-75
2023/02/17 23:27:53;;;;;;;5.10;2.58;;;;;;;11.65;100.00;101263.63;20794465;28;20103;-75
2023/02/17 23:37:55;;;;;;;6.13;3.20;;;;;;;11.52;100.00;101265.44;20784414;28;20062;-75
2023/02/17 23:47:56;;;;;;;5.88;2.45;;;;;;;11.55;100.00;101249.69;20780996;28;20108;-75
2023/02/17 23:57:59;;;;;;;4.93;2.70;;;;;;;11.70;100.00;101260.97;20792124;28;20144;-75
